Mandvi Airport

IN-0176 · Gujarat, India

Storia di METAR IN-0176 · Mandvi Airport

Di seguito sono riportati i METAR degli ultimi giorni. Seleziona un anno per sfogliare i METAR più vecchi, dall'anno 2007 in poi.

18 luglio 2024

Tempo Codice Tempo meteorologico Temp. Vista Base nuvolosa Vento METAR/SPECI
13:00
M
35 °C 5 km - Var Var 2 kt METAR VAKE 180730Z VRB02KT 5000 HZ SCT020 SCT025 35/28 Q0998 NOSIG
10:30
M
34 °C 5 km - 070° 070° 4 kt METAR VAKE 180500Z 07004KT 5000 HZ SCT020 SCT025 34/27 Q0999 NOSIG
10:00
M
33 °C 5 km - 360° 360° 5 kt METAR VAKE 180430Z 36005KT 5000 HZ SCT020 SCT025 33/28 Q0999 NOSIG
09:30
M
33 °C 5 km - Var Var 2 kt METAR VAKE 180400Z VRB02KT 5000 HZ FEW018 SCT025 33/28 Q0999 NOSIG

17 luglio 2024

Tempo Codice Tempo meteorologico Temp. Vista Base nuvolosa Vento METAR/SPECI
18:30
I
33 °C 4 km - 170° 170° 4 kt METAR VAKE 171300Z 17004KT 4000 HZ FEW025 33/27 Q0996 NOSIG
18:00
I
34 °C 4 km - 180° 180° 5 kt METAR VAKE 171230Z 18005KT 4000 HZ FEW020 SCT080 34/27 Q0996 NOSIG
17:30
I
34 °C 4 km - 200° 200° 4 kt METAR VAKE 171200Z 20004KT 4000 HZ FEW020 SCT080 34/27 Q0996 NOSIG
17:00
I
34 °C 4 km 7.000 ft 190° 190° 5 kt METAR VAKE 171130Z 19005KT 4000 HZ FEW020 SCT025 BKN070 34/27 Q0996 NOSIG
14:30
M
34 °C 5 km - 070° 070° 6 kt METAR VAKE 170900Z 07006KT 5000 HZ FEW020 SCT025 34/27 Q0998 NOSIG
14:00
M
34 °C 5 km - 070° 070° 4 kt METAR VAKE 170830Z 07004KT 5000 HZ SCT025 34/27 Q0998 NOSIG
13:30
M
33 °C 5 km - 080° 080° 5 kt METAR VAKE 170800Z 08005KT 5000 HZ SCT025 33/28 Q0999 NOSIG
13:00
M
33 °C 5 km - 120° 120° 5 kt METAR VAKE 170730Z 12005KT 5000 HZ SCT025 SCT080 33/28 Q0999 NOSIG
13:11
M
33 °C 5 km - 120° 120° 5 kt METAR VAKE 170741Z 12005KT 5000 HZ SCT018 SCT080 33/28 Q0999 NOSIG

16 luglio 2024

Tempo Codice Tempo meteorologico Temp. Vista Base nuvolosa Vento METAR/SPECI
14:30
M
37 °C 5 km - 340° 340° 8 kt METAR VAKE 160900Z 34008KT 320V040 5000 FU SCT018 37/27 Q0997 NOSIG
14:00
M
36 °C 5 km - 360° 360° 6 kt METAR VAKE 160830Z 36006KT 5000 FU FEW018 36/29 Q0997 NOSIG
13:30
M
36 °C 5 km - 010° 010° 6 kt METAR VAKE 160800Z 01006KT 5000 FU FEW018 36/28 Q0997 NOSIG
Segnala modifiche